createdAt,value
2019-01-10T00:00:26.083Z,1010.61
2019-01-10T00:01:26.071Z,1010.61
2019-01-10T00:02:26.065Z,1010.67
2019-01-10T00:03:26.049Z,1010.63
2019-01-10T00:04:26.043Z,1010.71
2019-01-10T00:05:26.032Z,1010.71
2019-01-10T00:06:26.024Z,1010.74
2019-01-10T00:07:26.003Z,1010.76
2019-01-10T00:08:26.003Z,1010.77
2019-01-10T00:09:25.989Z,1010.81
2019-01-10T00:10:25.977Z,1010.81
2019-01-10T00:11:25.971Z,1010.82
2019-01-10T00:12:25.967Z,1010.84
2019-01-10T00:13:25.945Z,1010.86
2019-01-10T00:14:25.929Z,1010.81
2019-01-10T00:15:25.923Z,1010.84
2019-01-10T00:16:25.914Z,1010.83
2019-01-10T00:17:25.908Z,1010.82
2019-01-10T00:18:25.901Z,1010.91
2019-01-10T00:19:25.883Z,1010.87
2019-01-10T00:20:25.871Z,1010.85
2019-01-10T00:21:25.861Z,1010.88
2019-01-10T00:22:25.850Z,1010.80
2019-01-10T00:23:25.837Z,1010.83
2019-01-10T00:24:25.829Z,1010.85
2019-01-10T00:25:25.819Z,1010.90
2019-01-10T00:26:25.819Z,1010.86
2019-01-10T00:27:25.795Z,1010.83
2019-01-10T00:28:25.792Z,1010.85
2019-01-10T00:29:25.772Z,1010.91
2019-01-10T00:30:25.764Z,1010.96
2019-01-10T00:31:25.770Z,1010.98
2019-01-10T00:32:25.740Z,1010.94
2019-01-10T00:33:25.733Z,1010.96
2019-01-10T00:34:25.726Z,1010.88
2019-01-10T00:35:25.709Z,1010.96
2019-01-10T00:36:25.698Z,1011.06
2019-01-10T00:37:25.681Z,1011.03
2019-01-10T00:38:25.677Z,1011.07
2019-01-10T00:39:25.671Z,1011.02
2019-01-10T00:40:25.663Z,1011.07
2019-01-10T00:41:25.653Z,1011.11
2019-01-10T00:42:25.629Z,1011.07
2019-01-10T00:43:25.625Z,1011.09
2019-01-10T00:44:25.622Z,1011.10
2019-01-10T00:45:25.605Z,1011.14
2019-01-10T00:46:25.590Z,1011.07
2019-01-10T00:47:25.582Z,1011.15
2019-01-10T00:48:25.571Z,1011.11
2019-01-10T00:49:25.559Z,1011.15
2019-01-10T00:50:25.549Z,1011.07
2019-01-10T00:51:25.550Z,1011.11
2019-01-10T00:52:25.526Z,1011.10
2019-01-10T00:53:25.515Z,1011.18
2019-01-10T00:54:25.505Z,1011.17
2019-01-10T00:55:25.512Z,1011.19
2019-01-10T00:56:25.485Z,1011.22
2019-01-10T00:57:25.475Z,1011.20
2019-01-10T00:58:25.479Z,1011.16
2019-01-10T00:59:25.459Z,1011.23
2019-01-10T01:00:25.442Z,1011.30
2019-01-10T01:01:25.434Z,1011.24
2019-01-10T01:02:25.425Z,1011.26
2019-01-10T01:03:25.419Z,1011.33
2019-01-10T01:04:25.477Z,1011.30
2019-01-10T01:05:25.388Z,1011.33
2019-01-10T01:06:25.377Z,1011.33
2019-01-10T01:07:25.371Z,1011.36
2019-01-10T01:08:25.355Z,1011.39
2019-01-10T01:09:25.346Z,1011.40
2019-01-10T01:10:25.357Z,1011.37
2019-01-10T01:11:25.325Z,1011.40
2019-01-10T01:12:25.311Z,1011.45
2019-01-10T01:13:25.304Z,1011.45
2019-01-10T01:14:25.297Z,1011.43
2019-01-10T01:15:25.300Z,1011.47
2019-01-10T01:16:25.275Z,1011.48
2019-01-10T01:17:25.264Z,1011.53
2019-01-10T01:18:25.256Z,1011.60
2019-01-10T01:19:25.253Z,1011.58
2019-01-10T01:20:25.237Z,1011.59
2019-01-10T01:21:25.221Z,1011.66
2019-01-10T01:22:25.209Z,1011.62
2019-01-10T01:23:25.205Z,1011.67
2019-01-10T01:24:25.225Z,1011.68
2019-01-10T01:25:25.188Z,1011.64
2019-01-10T01:26:25.165Z,1011.72
2019-01-10T01:27:25.161Z,1011.67
2019-01-10T01:28:25.149Z,1011.69
2019-01-10T01:29:25.141Z,1011.67
2019-01-10T01:30:25.124Z,1011.69
2019-01-10T01:31:25.121Z,1011.77
2019-01-10T01:32:25.105Z,1011.78
2019-01-10T01:33:25.091Z,1011.78
2019-01-10T01:34:25.083Z,1011.77
2019-01-10T01:35:25.073Z,1011.83
2019-01-10T01:36:25.065Z,1011.74
2019-01-10T01:37:25.057Z,1011.79
2019-01-10T01:38:25.037Z,1011.80
2019-01-10T01:39:25.025Z,1011.85
2019-01-10T01:40:25.019Z,1011.83
2019-01-10T01:41:25.009Z,1011.86
2019-01-10T01:42:25.004Z,1011.93
2019-01-10T01:43:24.985Z,1011.89
2019-01-10T01:44:24.978Z,1011.90
2019-01-10T01:45:24.968Z,1011.92
2019-01-10T01:46:24.960Z,1011.98
2019-01-10T01:47:24.947Z,1011.98
2019-01-10T01:48:25.036Z,1012.02
2019-01-10T01:49:24.922Z,1012.02
2019-01-10T01:50:24.917Z,1012.02
2019-01-10T01:51:24.912Z,1012.08
2019-01-10T01:52:24.892Z,1012.12
2019-01-10T01:53:24.880Z,1012.08
2019-01-10T01:54:24.867Z,1012.11
2019-01-10T01:55:24.859Z,1012.17
2019-01-10T01:56:24.851Z,1012.15
2019-01-10T01:57:24.841Z,1012.15
2019-01-10T01:58:24.831Z,1012.19
2019-01-10T01:59:24.817Z,1012.25
2019-01-10T02:00:24.897Z,1012.25
2019-01-10T02:01:24.802Z,1012.26
2019-01-10T02:02:24.789Z,1012.22
2019-01-10T02:03:24.785Z,1012.26
2019-01-10T02:04:24.767Z,1012.31
2019-01-10T02:05:24.757Z,1012.34
2019-01-10T02:06:24.748Z,1012.35
2019-01-10T02:07:24.733Z,1012.32
2019-01-10T02:08:24.725Z,1012.37
2019-01-10T02:09:24.712Z,1012.38
2019-01-10T02:10:24.711Z,1012.33
2019-01-10T02:11:24.685Z,1012.37
2019-01-10T02:12:24.699Z,1012.36
2019-01-10T02:13:24.675Z,1012.37
2019-01-10T02:14:24.656Z,1012.46
2019-01-10T02:15:24.650Z,1012.38
2019-01-10T02:16:24.641Z,1012.40
2019-01-10T02:17:24.630Z,1012.43
2019-01-10T02:18:24.665Z,1012.40
2019-01-10T02:19:24.609Z,1012.48
2019-01-10T02:20:24.598Z,1012.46
2019-01-10T02:21:24.583Z,1012.45
2019-01-10T02:22:24.581Z,1012.51
2019-01-10T02:23:24.567Z,1012.51
2019-01-10T02:24:24.558Z,1012.47
2019-01-10T02:25:24.546Z,1012.50
2019-01-10T02:26:24.535Z,1012.52
2019-01-10T02:27:24.520Z,1012.48
2019-01-10T02:28:24.514Z,1012.49
2019-01-10T02:29:24.501Z,1012.49
2019-01-10T02:30:24.509Z,1012.53
2019-01-10T02:31:24.482Z,1012.54
2019-01-10T02:32:24.471Z,1012.51
2019-01-10T02:33:24.461Z,1012.57
2019-01-10T02:34:24.445Z,1012.60
2019-01-10T02:35:24.441Z,1012.57
2019-01-10T02:36:24.425Z,1012.55
2019-01-10T02:37:24.412Z,1012.63
2019-01-10T02:38:24.406Z,1012.66
2019-01-10T02:39:24.447Z,1012.68
2019-01-10T02:40:24.379Z,1012.70
2019-01-10T02:41:24.384Z,1012.65
2019-01-10T02:42:24.361Z,1012.68
2019-01-10T02:45:47.562Z,1012.70
2019-01-10T02:46:47.530Z,1012.75
2019-01-10T02:48:19.677Z,1012.73
2019-01-10T02:49:18.195Z,1012.74
2019-01-10T02:50:48.897Z,1012.73
2019-01-10T02:51:48.877Z,1012.74
2019-01-10T02:53:19.557Z,1012.81
2019-01-10T02:54:19.517Z,1012.85
2019-01-10T02:55:50.218Z,1012.78
2019-01-10T02:56:50.205Z,1012.76
2019-01-10T02:58:20.885Z,1012.81
2019-01-10T02:59:20.866Z,1012.77
2019-01-10T03:00:51.537Z,1012.79
2019-01-10T03:01:51.513Z,1012.77
2019-01-10T03:03:22.238Z,1012.72
2019-01-10T03:04:22.225Z,1012.76
2019-01-10T03:05:52.899Z,1012.73
2019-01-10T03:06:52.877Z,1012.74
2019-01-10T03:07:52.870Z,1012.76
2019-01-10T03:08:52.855Z,1012.79
2019-01-10T03:09:52.864Z,1012.73
2019-01-10T03:10:52.827Z,1012.80
2019-01-10T03:11:52.826Z,1012.83
2019-01-10T03:12:52.815Z,1012.82
2019-01-10T03:13:52.803Z,1012.79
2019-01-10T03:14:52.793Z,1012.83
2019-01-10T03:15:52.792Z,1012.81
2019-01-10T03:16:52.771Z,1012.86
2019-01-10T03:17:52.761Z,1012.85
2019-01-10T03:18:52.749Z,1012.86
2019-01-10T03:19:52.738Z,1012.87
2019-01-10T03:20:52.793Z,1012.90
2019-01-10T03:21:52.721Z,1012.84
2019-01-10T03:22:52.709Z,1012.87
2019-01-10T03:23:52.692Z,1012.89
2019-01-10T03:24:52.684Z,1012.88
2019-01-10T03:25:52.675Z,1012.91
2019-01-10T03:26:52.667Z,1012.90
2019-01-10T03:27:52.661Z,1012.88
2019-01-10T03:28:52.637Z,1012.90
2019-01-10T03:29:52.628Z,1012.82
2019-01-10T03:30:52.759Z,1012.84
2019-01-10T03:31:52.608Z,1012.88
2019-01-10T03:32:52.607Z,1012.88
2019-01-10T03:33:52.590Z,1012.88
2019-01-10T03:34:52.576Z,1012.89
2019-01-10T03:35:52.567Z,1012.87
2019-01-10T03:36:52.559Z,1012.87
2019-01-10T03:37:52.545Z,1012.89
2019-01-10T03:38:52.541Z,1012.88
2019-01-10T03:39:52.521Z,1012.96
2019-01-10T03:40:52.513Z,1012.95
2019-01-10T03:41:52.505Z,1012.95
2019-01-10T03:42:52.491Z,1012.92
2019-01-10T03:43:52.493Z,1012.97
2019-01-10T03:44:52.480Z,1013.01
2019-01-10T03:45:52.462Z,1012.93
2019-01-10T03:46:52.447Z,1013.00
2019-01-10T03:47:52.447Z,1013.06
2019-01-10T03:48:52.423Z,1013.01
2019-01-10T03:49:52.419Z,1013.03
2019-01-10T03:50:52.404Z,1013.04
2019-01-10T03:51:52.395Z,1013.05
2019-01-10T03:52:52.383Z,1013.06
2019-01-10T03:53:52.383Z,1013.10
2019-01-10T03:54:52.363Z,1013.04
2019-01-10T03:55:52.357Z,1013.06
2019-01-10T03:56:52.340Z,1013.04
2019-01-10T03:57:52.333Z,1013.07
2019-01-10T03:58:52.319Z,1013.06
2019-01-10T03:59:52.837Z,1013.07
2019-01-10T04:00:52.301Z,1013.04
2019-01-10T04:01:52.288Z,1013.07
2019-01-10T04:02:52.278Z,1013.12
2019-01-10T04:03:52.269Z,1013.11
2019-01-10T04:04:52.271Z,1013.15
2019-01-10T04:05:52.240Z,1013.06
2019-01-10T04:06:52.233Z,1013.11
2019-01-10T04:07:52.218Z,1013.13
2019-01-10T04:08:52.217Z,1013.20
2019-01-10T04:09:52.201Z,1013.12
2019-01-10T04:10:52.190Z,1013.10
2019-01-10T04:11:52.182Z,1013.15
2019-01-10T04:12:52.174Z,1013.18
2019-01-10T04:13:57.353Z,1013.16
2019-01-10T04:14:53.150Z,1013.15
2019-01-10T04:15:52.140Z,1013.16
2019-01-10T04:16:52.194Z,1013.13
2019-01-10T04:17:52.119Z,1013.17
2019-01-10T04:18:52.113Z,1013.18
2019-01-10T04:19:52.099Z,1013.24
2019-01-10T04:20:52.089Z,1013.24
2019-01-10T04:21:52.077Z,1013.27
2019-01-10T04:22:52.066Z,1013.26
2019-01-10T04:23:52.054Z,1013.23
2019-01-10T04:24:52.067Z,1013.24
2019-01-10T04:25:52.036Z,1013.22
2019-01-10T04:26:52.023Z,1013.31
2019-01-10T04:27:52.012Z,1013.36
2019-01-10T04:28:52.001Z,1013.32
2019-01-10T04:29:51.993Z,1013.36
2019-01-10T04:30:52.022Z,1013.33
2019-01-10T04:31:51.968Z,1013.36
2019-01-10T04:32:51.967Z,1013.34
2019-01-10T04:33:51.944Z,1013.36
2019-01-10T04:34:51.938Z,1013.35
2019-01-10T04:35:51.931Z,1013.40
2019-01-10T04:36:51.918Z,1013.46
2019-01-10T04:37:51.907Z,1013.45
2019-01-10T04:38:51.894Z,1013.40
2019-01-10T04:39:51.880Z,1013.46
2019-01-10T04:40:51.881Z,1013.49
2019-01-10T04:41:51.857Z,1013.40
2019-01-10T04:42:51.865Z,1013.44
2019-01-10T04:43:51.837Z,1013.46
2019-01-10T04:44:51.831Z,1013.46
2019-01-10T04:45:51.817Z,1013.41
2019-01-10T04:46:51.809Z,1013.42
2019-01-10T04:47:51.805Z,1013.49
2019-01-10T04:48:51.792Z,1013.49
2019-01-10T04:49:51.779Z,1013.47
2019-01-10T04:50:51.759Z,1013.50
2019-01-10T04:51:51.751Z,1013.52
2019-01-10T04:52:51.757Z,1013.46
2019-01-10T04:53:51.735Z,1013.48
2019-01-10T04:54:55.976Z,1013.49
2019-01-10T04:55:51.712Z,1013.49
2019-01-10T04:56:51.700Z,1013.50
2019-01-10T04:57:53.153Z,1013.50
2019-01-10T04:58:51.679Z,1013.55
2019-01-10T04:59:51.666Z,1013.51
2019-01-10T05:00:51.661Z,1013.55
2019-01-10T05:01:51.646Z,1013.62
2019-01-10T05:02:51.639Z,1013.53
2019-01-10T05:03:51.631Z,1013.53
2019-01-10T05:04:51.617Z,1013.65
2019-01-10T05:05:51.606Z,1013.58
2019-01-10T05:06:51.597Z,1013.60
2019-01-10T05:07:51.593Z,1013.60
2019-01-10T05:08:51.572Z,1013.62
2019-01-10T05:09:51.568Z,1013.62
2019-01-10T05:10:51.554Z,1013.65
2019-01-10T05:11:51.544Z,1013.61
2019-01-10T05:12:51.549Z,1013.68
2019-01-10T05:13:51.527Z,1013.63
2019-01-10T05:14:51.513Z,1013.66
2019-01-10T05:15:51.510Z,1013.70
2019-01-10T05:16:51.486Z,1013.65
2019-01-10T05:17:51.480Z,1013.66
2019-01-10T05:18:51.464Z,1013.73
2019-01-10T05:19:51.453Z,1013.65
2019-01-10T05:20:51.459Z,1013.70
2019-01-10T05:21:51.436Z,1013.79
2019-01-10T05:22:51.427Z,1013.74
2019-01-10T05:23:51.408Z,1013.80
2019-01-10T05:24:51.401Z,1013.81
2019-01-10T05:25:51.402Z,1013.84
2019-01-10T05:26:51.394Z,1013.85
2019-01-10T05:27:51.366Z,1013.89
2019-01-10T05:28:51.361Z,1013.87
2019-01-10T05:29:51.345Z,1013.90
2019-01-10T05:30:51.341Z,1013.87
2019-01-10T05:31:51.335Z,1013.94
2019-01-10T05:32:51.327Z,1013.90
2019-01-10T05:33:51.305Z,1013.91
2019-01-10T05:34:51.297Z,1013.97
2019-01-10T05:35:51.283Z,1013.96
2019-01-10T05:36:51.271Z,1013.98
2019-01-10T05:37:51.339Z,1014.00
2019-01-10T05:38:51.258Z,1014.04
2019-01-10T05:39:51.249Z,1013.96
2019-01-10T05:40:51.231Z,1013.99
2019-01-10T05:41:51.225Z,1014.03
2019-01-10T05:42:51.212Z,1014.06
2019-01-10T05:43:51.212Z,1014.04
2019-01-10T05:44:51.213Z,1014.09
2019-01-10T05:45:51.181Z,1014.03
2019-01-10T05:46:51.171Z,1014.08
2019-01-10T05:47:51.156Z,1014.10
2019-01-10T05:48:51.151Z,1014.10
2019-01-10T05:49:51.144Z,1014.07
2019-01-10T05:50:51.124Z,1014.11
2019-01-10T05:51:51.119Z,1014.14
2019-01-10T05:52:51.106Z,1014.15
2019-01-10T05:53:51.110Z,1014.12
2019-01-10T05:54:51.095Z,1014.10
2019-01-10T05:55:51.082Z,1014.12
2019-01-10T05:56:51.065Z,1014.15
2019-01-10T05:57:51.058Z,1014.11
2019-01-10T05:58:51.041Z,1014.17
2019-01-10T05:59:51.037Z,1014.15
2019-01-10T06:00:51.029Z,1014.22
2019-01-10T06:01:51.021Z,1014.19
2019-01-10T06:02:51.007Z,1014.20
2019-01-10T06:03:53.361Z,1014.27
2019-01-10T06:04:50.981Z,1014.25
2019-01-10T06:05:50.968Z,1014.28
2019-01-10T06:06:50.957Z,1014.27
2019-01-10T06:07:50.948Z,1014.28
2019-01-10T06:08:50.934Z,1014.29
2019-01-10T06:09:50.931Z,1014.32
2019-01-10T06:10:50.913Z,1014.28
2019-01-10T06:11:50.907Z,1014.31
2019-01-10T06:12:50.900Z,1014.31
2019-01-10T06:13:50.884Z,1014.32
2019-01-10T06:14:50.876Z,1014.33
2019-01-10T06:15:50.896Z,1014.39
2019-01-10T06:16:50.853Z,1014.36
2019-01-10T06:17:50.843Z,1014.37
2019-01-10T06:18:50.928Z,1014.44
2019-01-10T06:19:50.819Z,1014.41
2019-01-10T06:20:50.805Z,1014.49
2019-01-10T06:21:50.801Z,1014.47
2019-01-10T06:22:50.785Z,1014.52
2019-01-10T06:23:50.780Z,1014.54
2019-01-10T06:24:50.766Z,1014.54
2019-01-10T06:25:50.794Z,1014.56
2019-01-10T06:26:50.745Z,1014.60
2019-01-10T06:27:50.730Z,1014.56
2019-01-10T06:28:50.723Z,1014.62
2019-01-10T06:29:50.716Z,1014.64
2019-01-10T06:30:50.701Z,1014.67
2019-01-10T06:31:50.689Z,1014.69
2019-01-10T06:32:50.722Z,1014.71
2019-01-10T06:33:50.682Z,1014.72
2019-01-10T06:34:50.660Z,1014.68
2019-01-10T06:35:50.657Z,1014.74
2019-01-10T06:36:50.667Z,1014.69
2019-01-10T06:37:50.646Z,1014.72
2019-01-10T06:38:50.631Z,1014.72
2019-01-10T06:39:50.607Z,1014.75
2019-01-10T06:40:50.600Z,1014.76
2019-01-10T06:41:50.590Z,1014.73
2019-01-10T06:42:50.584Z,1014.72
2019-01-10T06:43:50.563Z,1014.73
2019-01-10T06:44:50.546Z,1014.79
2019-01-10T06:45:50.547Z,1014.80
2019-01-10T06:46:50.534Z,1014.80
2019-01-10T06:47:50.517Z,1014.94
2019-01-10T06:48:50.508Z,1014.87
2019-01-10T06:49:50.500Z,1014.94
2019-01-10T06:50:50.493Z,1014.88
2019-01-10T06:51:50.479Z,1014.93
2019-01-10T06:52:50.474Z,1014.92
2019-01-10T06:53:50.454Z,1014.93
2019-01-10T06:54:56.586Z,1014.91
2019-01-10T06:55:51.433Z,1014.98
2019-01-10T06:56:50.433Z,1014.95
2019-01-10T06:57:50.417Z,1014.98
2019-01-10T06:58:50.405Z,1014.97
2019-01-10T06:59:50.400Z,1015.02
2019-01-10T07:00:50.390Z,1015.06
2019-01-10T07:01:50.391Z,1015.04
2019-01-10T07:02:50.369Z,1015.02
2019-01-10T07:03:50.355Z,1015.01
2019-01-10T07:04:50.349Z,1015.03
2019-01-10T07:05:50.332Z,1015.00
2019-01-10T07:06:50.323Z,1015.04
2019-01-10T07:07:56.225Z,1015.05
2019-01-10T07:08:51.308Z,1015.02
2019-01-10T07:09:50.293Z,1015.02
2019-01-10T07:10:50.283Z,1015.03
2019-01-10T07:11:50.261Z,1015.03
2019-01-10T07:12:50.255Z,1015.09
2019-01-10T07:13:50.255Z,1015.07
2019-01-10T07:14:53.679Z,1015.11
2019-01-10T07:15:50.225Z,1015.14
2019-01-10T07:16:53.649Z,1015.16
2019-01-10T07:17:50.203Z,1015.20
2019-01-10T07:18:50.199Z,1015.22
2019-01-10T07:19:50.179Z,1015.17
2019-01-10T07:20:52.169Z,1015.22
2019-01-10T07:21:50.161Z,1015.18
2019-01-10T07:22:50.157Z,1015.17
2019-01-10T07:23:50.144Z,1015.25
2019-01-10T07:24:50.129Z,1015.26
2019-01-10T07:25:50.116Z,1015.21
2019-01-10T07:26:50.106Z,1015.18
2019-01-10T07:27:50.096Z,1015.19
2019-01-10T07:28:50.087Z,1015.25
2019-01-10T07:29:50.080Z,1015.20
2019-01-10T07:30:50.077Z,1015.24
2019-01-10T07:31:50.055Z,1015.24
2019-01-10T07:32:50.047Z,1015.24
2019-01-10T07:33:50.031Z,1015.27
2019-01-10T07:34:50.022Z,1015.29
2019-01-10T07:35:50.013Z,1015.28
2019-01-10T07:36:50.010Z,1015.26
2019-01-10T07:37:49.995Z,1015.26
2019-01-10T07:38:49.985Z,1015.31
2019-01-10T07:39:49.975Z,1015.26
2019-01-10T07:40:49.963Z,1015.25
2019-01-10T07:41:49.948Z,1015.27
2019-01-10T07:42:49.958Z,1015.29
2019-01-10T07:43:49.926Z,1015.29
2019-01-10T07:44:49.909Z,1015.33
2019-01-10T07:45:49.903Z,1015.36
2019-01-10T07:46:49.900Z,1015.34
2019-01-10T07:47:49.890Z,1015.38
2019-01-10T07:48:49.878Z,1015.44
2019-01-10T07:49:49.862Z,1015.39
2019-01-10T07:50:49.851Z,1015.39
2019-01-10T07:51:49.841Z,1015.37
2019-01-10T07:52:49.834Z,1015.39
2019-01-10T07:53:49.839Z,1015.40
2019-01-10T07:54:49.821Z,1015.44
2019-01-10T07:55:49.806Z,1015.47
2019-01-10T07:56:49.789Z,1015.48
2019-01-10T07:57:49.776Z,1015.52
2019-01-10T07:58:49.763Z,1015.52
2019-01-10T07:59:49.760Z,1015.54
2019-01-10T08:00:49.756Z,1015.55
2019-01-10T08:01:49.738Z,1015.60
2019-01-10T08:02:49.717Z,1015.58
2019-01-10T08:03:49.716Z,1015.65
2019-01-10T08:04:49.701Z,1015.60
2019-01-10T08:05:49.706Z,1015.69
2019-01-10T08:06:49.676Z,1015.69
2019-01-10T08:07:49.671Z,1015.72
2019-01-10T08:08:49.670Z,1015.74
2019-01-10T08:09:49.654Z,1015.71
2019-01-10T08:10:49.652Z,1015.77
2019-01-10T08:11:49.629Z,1015.74
2019-01-10T08:12:49.617Z,1015.80
2019-01-10T08:13:49.605Z,1015.71
2019-01-10T08:14:49.607Z,1015.84
2019-01-10T08:15:49.594Z,1015.80
2019-01-10T08:16:49.578Z,1015.81
2019-01-10T08:17:49.567Z,1015.77
2019-01-10T08:18:51.469Z,1015.89
2019-01-10T08:19:49.543Z,1015.91
2019-01-10T08:20:49.529Z,1015.92
2019-01-10T08:21:49.525Z,1015.98
2019-01-10T08:22:49.513Z,1015.93
2019-01-10T08:23:49.503Z,1015.95
2019-01-10T08:24:49.494Z,1016.00
2019-01-10T08:25:49.479Z,1016.03
2019-01-10T08:26:49.471Z,1016.02
2019-01-10T08:27:49.461Z,1016.06
2019-01-10T08:28:49.449Z,1015.99
2019-01-10T08:29:49.435Z,1016.05
2019-01-10T08:30:49.429Z,1016.06
2019-01-10T08:31:49.415Z,1016.09
2019-01-10T08:32:49.407Z,1016.08
2019-01-10T08:33:49.436Z,1016.08
2019-01-10T08:34:51.242Z,1016.08
2019-01-10T08:35:49.376Z,1016.08
2019-01-10T08:36:49.365Z,1016.09
2019-01-10T08:37:49.348Z,1016.13
2019-01-10T08:38:49.341Z,1016.08
2019-01-10T08:39:49.337Z,1016.14
2019-01-10T08:40:49.323Z,1016.16
2019-01-10T08:41:49.310Z,1016.12
2019-01-10T08:42:49.319Z,1016.15
2019-01-10T08:43:49.285Z,1016.18
2019-01-10T08:44:49.289Z,1016.16
2019-01-10T08:45:49.269Z,1016.18
2019-01-10T08:46:49.262Z,1016.19
2019-01-10T08:47:49.250Z,1016.15
2019-01-10T08:48:49.234Z,1016.12
2019-01-10T08:49:49.227Z,1016.09
2019-01-10T08:50:49.217Z,1016.23
2019-01-10T08:51:49.205Z,1016.14
2019-01-10T08:52:49.200Z,1016.17
2019-01-10T08:53:54.052Z,1016.17
2019-01-10T08:54:51.826Z,1016.21
2019-01-10T08:55:49.165Z,1016.24
2019-01-10T08:56:49.160Z,1016.24
2019-01-10T08:57:49.147Z,1016.27
2019-01-10T08:58:49.128Z,1016.31
2019-01-10T08:59:49.119Z,1016.30
2019-01-10T09:00:49.107Z,1016.30
2019-01-10T09:01:49.099Z,1016.33
2019-01-10T09:02:49.091Z,1016.33
2019-01-10T09:03:49.408Z,1016.35
2019-01-10T09:04:49.061Z,1016.33
2019-01-10T09:05:49.051Z,1016.36
2019-01-10T09:06:49.042Z,1016.36
2019-01-10T09:07:49.035Z,1016.37
2019-01-10T09:08:49.025Z,1016.40
2019-01-10T09:09:49.014Z,1016.40
2019-01-10T09:10:49.000Z,1016.42
2019-01-10T09:11:48.987Z,1016.41
2019-01-10T09:12:48.978Z,1016.43
2019-01-10T09:13:48.974Z,1016.41
2019-01-10T09:14:48.955Z,1016.43
2019-01-10T09:15:48.942Z,1016.44
2019-01-10T09:16:48.938Z,1016.44
2019-01-10T09:17:48.926Z,1016.47
2019-01-10T09:18:48.914Z,1016.42
2019-01-10T09:19:50.910Z,1016.40
2019-01-10T09:20:48.889Z,1016.53
2019-01-10T09:21:48.877Z,1016.52
2019-01-10T09:22:48.875Z,1016.55
2019-01-10T09:23:48.863Z,1016.52
2019-01-10T09:24:48.847Z,1016.50
2019-01-10T09:25:48.840Z,1016.48
2019-01-10T09:26:48.831Z,1016.49
2019-01-10T09:27:48.819Z,1016.52
2019-01-10T09:28:48.814Z,1016.53
2019-01-10T09:29:48.795Z,1016.53
2019-01-10T09:30:48.783Z,1016.53
2019-01-10T09:31:48.774Z,1016.58
2019-01-10T09:32:48.774Z,1016.56
2019-01-10T09:33:48.760Z,1016.54
2019-01-10T09:34:48.748Z,1016.52
2019-01-10T09:35:48.737Z,1016.60
2019-01-10T09:36:48.726Z,1016.62
2019-01-10T09:37:48.719Z,1016.53
2019-01-10T09:38:48.699Z,1016.57
2019-01-10T09:39:48.692Z,1016.61
2019-01-10T09:40:48.686Z,1016.59
2019-01-10T09:41:48.679Z,1016.62
2019-01-10T09:42:48.657Z,1016.56
2019-01-10T09:43:48.677Z,1016.61
2019-01-10T09:44:48.639Z,1016.68
2019-01-10T09:45:48.631Z,1016.67
2019-01-10T09:46:48.619Z,1016.64
2019-01-10T09:47:48.609Z,1016.59
2019-01-10T09:48:48.600Z,1016.65
2019-01-10T09:49:48.579Z,1016.72
2019-01-10T09:50:48.569Z,1016.64
2019-01-10T09:51:48.561Z,1016.71
2019-01-10T09:52:48.552Z,1016.74
2019-01-10T09:53:48.539Z,1016.73
2019-01-10T09:54:48.524Z,1016.76
2019-01-10T09:55:48.548Z,1016.80
2019-01-10T09:56:48.512Z,1016.76
2019-01-10T09:57:48.525Z,1016.77
2019-01-10T09:58:48.487Z,1016.71
2019-01-10T09:59:50.203Z,1016.77
2019-01-10T10:00:48.469Z,1016.79
2019-01-10T10:01:48.447Z,1016.72
2019-01-10T10:02:48.451Z,1016.75
2019-01-10T10:03:48.433Z,1016.80
2019-01-10T10:04:48.424Z,1016.86
2019-01-10T10:05:48.417Z,1016.84
2019-01-10T10:06:48.407Z,1016.80
2019-01-10T10:07:48.386Z,1016.86
2019-01-10T10:08:48.376Z,1016.83
2019-01-10T10:09:48.368Z,1016.87
2019-01-10T10:10:48.356Z,1016.87
2019-01-10T10:11:48.358Z,1016.87
2019-01-10T10:12:48.346Z,1016.87
2019-01-10T10:13:48.331Z,1016.88
2019-01-10T10:14:48.315Z,1016.90
2019-01-10T10:15:52.733Z,1016.84
2019-01-10T10:16:48.289Z,1016.87
2019-01-10T10:17:48.291Z,1016.91
2019-01-10T10:18:48.270Z,1016.93
2019-01-10T10:19:48.262Z,1016.92
2019-01-10T10:20:48.255Z,1016.92
2019-01-10T10:21:48.243Z,1016.89
2019-01-10T10:22:48.329Z,1016.94
2019-01-10T10:23:48.334Z,1016.83
2019-01-10T10:24:48.205Z,1016.85
2019-01-10T10:25:48.201Z,1016.92
2019-01-10T10:26:48.188Z,1016.91
2019-01-10T10:27:48.176Z,1016.97
2019-01-10T10:28:48.166Z,1016.97
2019-01-10T10:29:48.151Z,1016.94
2019-01-10T10:30:48.142Z,1016.91
2019-01-10T10:31:48.136Z,1016.91
2019-01-10T10:32:48.120Z,1016.95
2019-01-10T10:33:48.114Z,1016.93
2019-01-10T10:34:48.111Z,1016.91
2019-01-10T10:35:48.090Z,1016.90
2019-01-10T10:36:48.074Z,1016.91
2019-01-10T10:37:48.076Z,1016.92
2019-01-10T10:38:48.062Z,1016.88
2019-01-10T10:39:48.045Z,1016.85
2019-01-10T10:40:48.038Z,1016.87
2019-01-10T10:41:48.030Z,1016.88
2019-01-10T10:42:48.031Z,1016.89
2019-01-10T10:43:48.006Z,1016.90
2019-01-10T10:44:47.993Z,1016.85
2019-01-10T10:45:47.988Z,1016.88
2019-01-10T10:46:47.972Z,1016.85
2019-01-10T10:47:47.964Z,1016.80
2019-01-10T10:48:47.950Z,1016.84
2019-01-10T10:49:47.943Z,1016.84
2019-01-10T10:50:47.935Z,1016.84
2019-01-10T10:51:47.915Z,1016.82
2019-01-10T10:52:47.907Z,1016.81
2019-01-10T10:53:47.907Z,1016.84
2019-01-10T10:54:47.887Z,1016.83
2019-01-10T10:55:47.870Z,1016.83
2019-01-10T10:56:47.954Z,1016.85
2019-01-10T10:57:47.856Z,1016.79
2019-01-10T10:58:47.846Z,1016.81
2019-01-10T10:59:47.836Z,1016.80
2019-01-10T11:00:47.824Z,1016.80
2019-01-10T11:01:47.824Z,1016.73
2019-01-10T11:02:47.810Z,1016.73
2019-01-10T11:03:47.807Z,1016.75
2019-01-10T11:04:47.786Z,1016.73
2019-01-10T11:05:47.770Z,1016.73
2019-01-10T11:06:47.768Z,1016.70
2019-01-10T11:07:47.748Z,1016.65
2019-01-10T11:08:47.748Z,1016.69
2019-01-10T11:09:47.729Z,1016.69
2019-01-10T11:10:47.816Z,1016.71
2019-01-10T11:11:47.707Z,1016.69
2019-01-10T11:12:47.704Z,1016.70
2019-01-10T11:13:47.681Z,1016.70
2019-01-10T11:14:48.389Z,1016.66
2019-01-10T11:15:47.667Z,1016.70
2019-01-10T11:16:47.654Z,1016.67
2019-01-10T11:17:47.650Z,1016.64
2019-01-10T11:18:47.632Z,1016.64
2019-01-10T11:19:47.628Z,1016.64
2019-01-10T11:20:47.613Z,1016.61
2019-01-10T11:21:47.602Z,1016.65
2019-01-10T11:22:47.582Z,1016.67
2019-01-10T11:23:47.573Z,1016.64
2019-01-10T11:24:47.567Z,1016.62
2019-01-10T11:25:47.552Z,1016.63
2019-01-10T11:26:47.545Z,1016.68
2019-01-10T11:27:47.542Z,1016.63
2019-01-10T11:28:47.519Z,1016.64
2019-01-10T11:29:47.512Z,1016.63
2019-01-10T11:30:47.502Z,1016.59
2019-01-10T11:31:47.504Z,1016.58
2019-01-10T11:32:47.486Z,1016.57
2019-01-10T11:33:47.474Z,1016.56
2019-01-10T11:34:47.462Z,1016.59
2019-01-10T11:35:47.449Z,1016.56
2019-01-10T11:36:47.444Z,1016.56
2019-01-10T11:37:47.438Z,1016.53
2019-01-10T11:38:47.422Z,1016.58
2019-01-10T11:39:47.408Z,1016.55
2019-01-10T11:40:47.396Z,1016.55
2019-01-10T11:41:47.400Z,1016.53
2019-01-10T11:42:47.377Z,1016.53
2019-01-10T11:43:47.378Z,1016.55
2019-01-10T11:44:47.352Z,1016.57
2019-01-10T11:45:47.346Z,1016.55
2019-01-10T11:46:47.332Z,1016.51
2019-01-10T11:47:47.324Z,1016.55
2019-01-10T11:48:47.314Z,1016.63
2019-01-10T11:49:47.300Z,1016.62
2019-01-10T11:50:47.283Z,1016.54
2019-01-10T11:51:47.285Z,1016.57
2019-01-10T11:52:47.272Z,1016.56
2019-01-10T11:53:47.255Z,1016.54
2019-01-10T11:54:47.245Z,1016.53
2019-01-10T11:55:47.238Z,1016.58
2019-01-10T11:56:47.220Z,1016.54
2019-01-10T11:57:47.211Z,1016.51
2019-01-10T11:58:47.202Z,1016.46
2019-01-10T11:59:47.190Z,1016.44
2019-01-10T12:00:47.200Z,1016.52
2019-01-10T12:01:47.165Z,1016.41
2019-01-10T12:02:47.157Z,1016.38
2019-01-10T12:03:47.142Z,1016.43
2019-01-10T12:04:47.140Z,1016.44
2019-01-10T12:05:47.830Z,1016.41
2019-01-10T12:06:48.117Z,1016.45
2019-01-10T12:07:47.112Z,1016.47
2019-01-10T12:08:47.099Z,1016.48
2019-01-10T12:09:47.091Z,1016.49
2019-01-10T12:10:47.084Z,1016.46
2019-01-10T12:11:47.078Z,1016.41